sensor_id;sensor_type;location;lat;lon;timestamp;temperature;humidity
40676;DHT22;26359;48.750;9.314;2022-09-09T00:01:28;16.30;99.90
40676;DHT22;26359;48.750;9.314;2022-09-09T00:15:05;16.10;99.90
40676;DHT22;26359;48.750;9.314;2022-09-09T00:17:38;16.10;99.90
40676;DHT22;26359;48.750;9.314;2022-09-09T00:20:19;16.00;99.90
40676;DHT22;26359;48.750;9.314;2022-09-09T00:25:49;15.90;99.90
40676;DHT22;26359;48.750;9.314;2022-09-09T00:28:20;15.90;99.90
40676;DHT22;26359;48.750;9.314;2022-09-09T00:30:47;15.80;99.90
40676;DHT22;26359;48.750;9.314;2022-09-09T00:33:14;15.70;99.90
40676;DHT22;26359;48.750;9.314;2022-09-09T00:35:56;15.80;99.90
40676;DHT22;26359;48.750;9.314;2022-09-09T00:38:30;15.70;99.90
40676;DHT22;26359;48.750;9.314;2022-09-09T00:41:11;15.80;99.90
40676;DHT22;26359;48.750;9.314;2022-09-09T00:43:40;15.90;99.90
40676;DHT22;26359;48.750;9.314;2022-09-09T00:49:12;16.00;99.90
40676;DHT22;26359;48.750;9.314;2022-09-09T01:02:02;16.00;99.90
40676;DHT22;26359;48.750;9.314;2022-09-09T01:04:36;16.00;99.90
40676;DHT22;26359;48.750;9.314;2022-09-09T01:07:17;16.10;99.90
40676;DHT22;26359;48.750;9.314;2022-09-09T01:09:53;16.00;99.90
40676;DHT22;26359;48.750;9.314;2022-09-09T01:12:40;16.10;99.90
40676;DHT22;26359;48.750;9.314;2022-09-09T01:15:28;16.10;99.90
40676;DHT22;26359;48.750;9.314;2022-09-09T01:18:08;16.00;99.90
40676;DHT22;26359;48.750;9.314;2022-09-09T01:26:30;16.00;99.90
40676;DHT22;26359;48.750;9.314;2022-09-09T01:28:57;16.00;99.90
40676;DHT22;26359;48.750;9.314;2022-09-09T01:31:31;16.00;99.90
40676;DHT22;26359;48.750;9.314;2022-09-09T01:33:57;16.00;99.90
40676;DHT22;26359;48.750;9.314;2022-09-09T01:36:31;16.00;99.90
40676;DHT22;26359;48.750;9.314;2022-09-09T01:39:00;15.90;99.90
40676;DHT22;26359;48.750;9.314;2022-09-09T01:41:26;15.70;99.90
40676;DHT22;26359;48.750;9.314;2022-09-09T01:43:53;15.60;99.90
40676;DHT22;26359;48.750;9.314;2022-09-09T01:46:22;15.60;99.90
40676;DHT22;26359;48.750;9.314;2022-09-09T01:48:49;15.60;99.90
40676;DHT22;26359;48.750;9.314;2022-09-09T01:51:15;15.50;99.90
40676;DHT22;26359;48.750;9.314;2022-09-09T01:53:41;15.50;99.90
40676;DHT22;26359;48.750;9.314;2022-09-09T01:56:58;15.70;99.90
40676;DHT22;26359;48.750;9.314;2022-09-09T02:01:35;15.70;99.90
40676;DHT22;26359;48.750;9.314;2022-09-09T02:06:56;15.80;99.90
40676;DHT22;26359;48.750;9.314;2022-09-09T02:09:24;15.80;99.90
40676;DHT22;26359;48.750;9.314;2022-09-09T02:12:00;15.80;99.90
40676;DHT22;26359;48.750;9.314;2022-09-09T02:14:31;15.80;99.90
40676;DHT22;26359;48.750;9.314;2022-09-09T02:17:06;15.80;99.90
40676;DHT22;26359;48.750;9.314;2022-09-09T02:19:37;15.70;99.90
40676;DHT22;26359;48.750;9.314;2022-09-09T02:22:04;15.70;99.90
40676;DHT22;26359;48.750;9.314;2022-09-09T02:24:33;15.70;99.90
40676;DHT22;26359;48.750;9.314;2022-09-09T02:27:02;15.60;99.90
40676;DHT22;26359;48.750;9.314;2022-09-09T02:29:33;15.50;99.90
40676;DHT22;26359;48.750;9.314;2022-09-09T02:32:02;15.50;99.90
40676;DHT22;26359;48.750;9.314;2022-09-09T02:34:30;15.50;99.90
40676;DHT22;26359;48.750;9.314;2022-09-09T02:36:57;15.40;99.90
40676;DHT22;26359;48.750;9.314;2022-09-09T02:39:25;15.40;99.90
40676;DHT22;26359;48.750;9.314;2022-09-09T02:41:50;15.30;99.90
40676;DHT22;26359;48.750;9.314;2022-09-09T02:44:17;15.30;99.90
40676;DHT22;26359;48.750;9.314;2022-09-09T02:54:58;15.30;99.90
40676;DHT22;26359;48.750;9.314;2022-09-09T02:57:29;15.30;99.90
40676;DHT22;26359;48.750;9.314;2022-09-09T02:59:59;15.30;99.90
40676;DHT22;26359;48.750;9.314;2022-09-09T03:02:26;15.20;99.90
40676;DHT22;26359;48.750;9.314;2022-09-09T03:04:52;15.20;99.90
40676;DHT22;26359;48.750;9.314;2022-09-09T03:07:21;15.10;99.90
40676;DHT22;26359;48.750;9.314;2022-09-09T03:09:47;15.00;99.90
40676;DHT22;26359;48.750;9.314;2022-09-09T03:12:12;15.00;99.90
40676;DHT22;26359;48.750;9.314;2022-09-09T03:14:38;15.00;99.90
40676;DHT22;26359;48.750;9.314;2022-09-09T03:17:05;15.10;99.90
40676;DHT22;26359;48.750;9.314;2022-09-09T03:19:31;15.10;99.90
40676;DHT22;26359;48.750;9.314;2022-09-09T03:21:57;15.10;99.90
40676;DHT22;26359;48.750;9.314;2022-09-09T03:24:24;15.10;99.90
40676;DHT22;26359;48.750;9.314;2022-09-09T03:26:49;15.10;99.90
40676;DHT22;26359;48.750;9.314;2022-09-09T03:29:16;15.20;99.90
40676;DHT22;26359;48.750;9.314;2022-09-09T03:31:42;15.00;99.90
40676;DHT22;26359;48.750;9.314;2022-09-09T03:34:08;15.00;99.90
40676;DHT22;26359;48.750;9.314;2022-09-09T03:36:33;15.00;99.90
40676;DHT22;26359;48.750;9.314;2022-09-09T03:38:59;15.00;99.90
40676;DHT22;26359;48.750;9.314;2022-09-09T03:41:25;14.90;99.90
40676;DHT22;26359;48.750;9.314;2022-09-09T03:43:51;14.90;99.90
40676;DHT22;26359;48.750;9.314;2022-09-09T03:46:18;14.90;99.90
40676;DHT22;26359;48.750;9.314;2022-09-09T03:48:44;14.90;99.90
40676;DHT22;26359;48.750;9.314;2022-09-09T03:51:11;14.80;99.90
40676;DHT22;26359;48.750;9.314;2022-09-09T03:53:37;14.70;99.90
40676;DHT22;26359;48.750;9.314;2022-09-09T03:56:05;14.60;99.90
40676;DHT22;26359;48.750;9.314;2022-09-09T03:58:32;14.70;99.90
40676;DHT22;26359;48.750;9.314;2022-09-09T04:01:16;14.70;99.90
40676;DHT22;26359;48.750;9.314;2022-09-09T04:03:43;14.70;99.90
40676;DHT22;26359;48.750;9.314;2022-09-09T04:06:10;14.70;99.90
40676;DHT22;26359;48.750;9.314;2022-09-09T04:08:38;14.80;99.90
40676;DHT22;26359;48.750;9.314;2022-09-09T04:11:05;14.80;99.90
40676;DHT22;26359;48.750;9.314;2022-09-09T04:13:32;14.80;99.90
40676;DHT22;26359;48.750;9.314;2022-09-09T04:15:59;14.90;99.90
40676;DHT22;26359;48.750;9.314;2022-09-09T04:18:26;15.00;99.90
40676;DHT22;26359;48.750;9.314;2022-09-09T04:20:52;15.00;99.90
40676;DHT22;26359;48.750;9.314;2022-09-09T04:23:19;15.00;99.90
40676;DHT22;26359;48.750;9.314;2022-09-09T04:25:47;14.90;99.90
40676;DHT22;26359;48.750;9.314;2022-09-09T04:28:13;14.90;99.90
40676;DHT22;26359;48.750;9.314;2022-09-09T04:30:39;14.90;99.90
40676;DHT22;26359;48.750;9.314;2022-09-09T04:33:05;14.90;99.90
40676;DHT22;26359;48.750;9.314;2022-09-09T04:35:32;14.90;99.90
40676;DHT22;26359;48.750;9.314;2022-09-09T04:37:57;14.90;99.90
40676;DHT22;26359;48.750;9.314;2022-09-09T04:40:23;14.90;99.90
40676;DHT22;26359;48.750;9.314;2022-09-09T04:42:48;14.90;99.90
40676;DHT22;26359;48.750;9.314;2022-09-09T04:45:15;14.90;99.90
40676;DHT22;26359;48.750;9.314;2022-09-09T04:47:40;14.90;99.90
40676;DHT22;26359;48.750;9.314;2022-09-09T04:50:07;14.90;99.90
40676;DHT22;26359;48.750;9.314;2022-09-09T04:52:34;14.80;99.90
40676;DHT22;26359;48.750;9.314;2022-09-09T04:55:01;14.90;99.90
40676;DHT22;26359;48.750;9.314;2022-09-09T04:57:26;14.90;99.90
40676;DHT22;26359;48.750;9.314;2022-09-09T04:59:52;14.90;99.90
40676;DHT22;26359;48.750;9.314;2022-09-09T05:02:17;14.80;99.90
40676;DHT22;26359;48.750;9.314;2022-09-09T05:04:43;14.80;99.90
40676;DHT22;26359;48.750;9.314;2022-09-09T05:07:08;14.80;99.90
40676;DHT22;26359;48.750;9.314;2022-09-09T05:09:34;14.90;99.90
40676;DHT22;26359;48.750;9.314;2022-09-09T05:12:00;14.90;99.90
40676;DHT22;26359;48.750;9.314;2022-09-09T05:14:26;15.00;99.90
40676;DHT22;26359;48.750;9.314;2022-09-09T05:16:52;15.00;99.90
40676;DHT22;26359;48.750;9.314;2022-09-09T05:19:18;15.00;99.90
40676;DHT22;26359;48.750;9.314;2022-09-09T05:21:45;15.00;99.90
40676;DHT22;26359;48.750;9.314;2022-09-09T05:24:10;15.00;99.90
40676;DHT22;26359;48.750;9.314;2022-09-09T05:26:36;15.00;99.90
40676;DHT22;26359;48.750;9.314;2022-09-09T05:29:02;15.10;99.90
40676;DHT22;26359;48.750;9.314;2022-09-09T05:31:30;15.10;99.90
40676;DHT22;26359;48.750;9.314;2022-09-09T05:33:55;15.10;99.90
40676;DHT22;26359;48.750;9.314;2022-09-09T05:36:21;15.10;99.90
40676;DHT22;26359;48.750;9.314;2022-09-09T05:38:48;15.10;99.90
40676;DHT22;26359;48.750;9.314;2022-09-09T05:41:15;15.10;99.90
40676;DHT22;26359;48.750;9.314;2022-09-09T05:43:41;15.10;99.90
40676;DHT22;26359;48.750;9.314;2022-09-09T05:46:17;15.10;99.90
40676;DHT22;26359;48.750;9.314;2022-09-09T05:48:45;15.10;99.90
40676;DHT22;26359;48.750;9.314;2022-09-09T05:51:18;15.10;99.90
40676;DHT22;26359;48.750;9.314;2022-09-09T05:53:45;15.10;99.90
40676;DHT22;26359;48.750;9.314;2022-09-09T05:56:15;15.10;99.90
40676;DHT22;26359;48.750;9.314;2022-09-09T05:58:41;15.20;99.90
40676;DHT22;26359;48.750;9.314;2022-09-09T06:01:14;15.30;99.90
40676;DHT22;26359;48.750;9.314;2022-09-09T06:03:41;15.30;99.90
40676;DHT22;26359;48.750;9.314;2022-09-09T06:06:10;15.40;99.90
40676;DHT22;26359;48.750;9.314;2022-09-09T06:08:39;15.40;99.90
40676;DHT22;26359;48.750;9.314;2022-09-09T06:11:06;15.50;99.90
40676;DHT22;26359;48.750;9.314;2022-09-09T06:13:32;15.50;99.90
40676;DHT22;26359;48.750;9.314;2022-09-09T06:15:58;15.50;99.90
40676;DHT22;26359;48.750;9.314;2022-09-09T06:18:24;15.60;99.90
40676;DHT22;26359;48.750;9.314;2022-09-09T06:20:55;15.60;99.90
40676;DHT22;26359;48.750;9.314;2022-09-09T06:23:21;15.70;99.90
40676;DHT22;26359;48.750;9.314;2022-09-09T06:25:46;15.70;99.90
40676;DHT22;26359;48.750;9.314;2022-09-09T06:28:12;15.70;99.90
40676;DHT22;26359;48.750;9.314;2022-09-09T06:30:38;15.70;99.90
40676;DHT22;26359;48.750;9.314;2022-09-09T06:33:05;15.70;99.90
40676;DHT22;26359;48.750;9.314;2022-09-09T06:35:30;15.80;99.90
40676;DHT22;26359;48.750;9.314;2022-09-09T06:37:56;15.80;99.90
40676;DHT22;26359;48.750;9.314;2022-09-09T06:40:24;15.90;99.90
40676;DHT22;26359;48.750;9.314;2022-09-09T06:42:50;15.90;99.90
40676;DHT22;26359;48.750;9.314;2022-09-09T06:45:16;15.90;99.90
40676;DHT22;26359;48.750;9.314;2022-09-09T06:47:43;15.90;99.90
40676;DHT22;26359;48.750;9.314;2022-09-09T06:50:08;16.00;99.90
40676;DHT22;26359;48.750;9.314;2022-09-09T06:52:36;16.00;99.90
40676;DHT22;26359;48.750;9.314;2022-09-09T06:55:02;16.10;99.90
40676;DHT22;26359;48.750;9.314;2022-09-09T06:57:28;16.10;99.90
40676;DHT22;26359;48.750;9.314;2022-09-09T06:59:54;16.10;99.90
40676;DHT22;26359;48.750;9.314;2022-09-09T07:02:19;16.10;99.90
40676;DHT22;26359;48.750;9.314;2022-09-09T07:04:45;16.20;99.90
40676;DHT22;26359;48.750;9.314;2022-09-09T07:07:10;16.20;99.90
40676;DHT22;26359;48.750;9.314;2022-09-09T07:09:38;16.30;99.90
40676;DHT22;26359;48.750;9.314;2022-09-09T07:12:05;16.40;99.90
40676;DHT22;26359;48.750;9.314;2022-09-09T07:14:31;16.50;99.90
40676;DHT22;26359;48.750;9.314;2022-09-09T07:16:57;16.50;99.90
40676;DHT22;26359;48.750;9.314;2022-09-09T07:19:23;16.60;99.90
40676;DHT22;26359;48.750;9.314;2022-09-09T07:21:49;16.60;99.90
40676;DHT22;26359;48.750;9.314;2022-09-09T07:24:14;16.60;99.90
40676;DHT22;26359;48.750;9.314;2022-09-09T07:26:41;16.70;99.90
40676;DHT22;26359;48.750;9.314;2022-09-09T07:29:07;16.70;99.90
40676;DHT22;26359;48.750;9.314;2022-09-09T07:31:36;16.80;99.90
40676;DHT22;26359;48.750;9.314;2022-09-09T07:34:03;16.80;99.90
40676;DHT22;26359;48.750;9.314;2022-09-09T07:36:34;16.90;99.90
40676;DHT22;26359;48.750;9.314;2022-09-09T07:39:03;16.90;99.90
40676;DHT22;26359;48.750;9.314;2022-09-09T07:41:35;16.90;99.90
40676;DHT22;26359;48.750;9.314;2022-09-09T07:44:12;16.90;99.90
40676;DHT22;26359;48.750;9.314;2022-09-09T07:46:38;17.00;99.90
40676;DHT22;26359;48.750;9.314;2022-09-09T07:49:07;17.00;99.90
40676;DHT22;26359;48.750;9.314;2022-09-09T07:51:45;17.00;99.90
40676;DHT22;26359;48.750;9.314;2022-09-09T07:54:12;17.10;99.90
40676;DHT22;26359;48.750;9.314;2022-09-09T07:56:39;17.10;99.90
40676;DHT22;26359;48.750;9.314;2022-09-09T07:59:05;17.10;99.90
40676;DHT22;26359;48.750;9.314;2022-09-09T08:01:40;17.10;99.90
40676;DHT22;26359;48.750;9.314;2022-09-09T08:04:09;17.10;99.90
40676;DHT22;26359;48.750;9.314;2022-09-09T08:06:39;17.10;99.90
40676;DHT22;26359;48.750;9.314;2022-09-09T08:09:06;17.00;99.90
40676;DHT22;26359;48.750;9.314;2022-09-09T08:11:33;17.00;99.90
40676;DHT22;26359;48.750;9.314;2022-09-09T08:13:59;17.00;99.90
40676;DHT22;26359;48.750;9.314;2022-09-09T08:16:27;17.10;99.90
40676;DHT22;26359;48.750;9.314;2022-09-09T08:18:53;17.20;99.90
40676;DHT22;26359;48.750;9.314;2022-09-09T08:21:27;17.40;99.90
40676;DHT22;26359;48.750;9.314;2022-09-09T08:23:54;17.40;99.90
40676;DHT22;26359;48.750;9.314;2022-09-09T08:26:28;17.50;99.90
40676;DHT22;26359;48.750;9.314;2022-09-09T08:28:55;17.50;99.90
40676;DHT22;26359;48.750;9.314;2022-09-09T08:31:27;17.60;99.90
40676;DHT22;26359;48.750;9.314;2022-09-09T08:33:57;17.70;99.90
40676;DHT22;26359;48.750;9.314;2022-09-09T08:36:24;17.80;99.90
40676;DHT22;26359;48.750;9.314;2022-09-09T08:38:52;17.90;99.90
40676;DHT22;26359;48.750;9.314;2022-09-09T08:49:57;18.40;99.90
40676;DHT22;26359;48.750;9.314;2022-09-09T08:52:41;18.60;99.90
40676;DHT22;26359;48.750;9.314;2022-09-09T08:58:23;18.80;99.90
40676;DHT22;26359;48.750;9.314;2022-09-09T09:03:53;19.10;99.90
40676;DHT22;26359;48.750;9.314;2022-09-09T09:12:01;19.60;99.90
40676;DHT22;26359;48.750;9.314;2022-09-09T09:14:33;19.50;99.90
40676;DHT22;26359;48.750;9.314;2022-09-09T09:17:20;19.50;99.90
40676;DHT22;26359;48.750;9.314;2022-09-09T09:19:47;19.50;99.90
40676;DHT22;26359;48.750;9.314;2022-09-09T09:22:19;19.60;99.90
40676;DHT22;26359;48.750;9.314;2022-09-09T09:25:00;19.70;99.90
40676;DHT22;26359;48.750;9.314;2022-09-09T09:29:58;20.10;99.90
40676;DHT22;26359;48.750;9.314;2022-09-09T09:32:27;20.20;99.90
40676;DHT22;26359;48.750;9.314;2022-09-09T09:34:58;20.40;99.90
40676;DHT22;26359;48.750;9.314;2022-09-09T09:37:29;20.50;99.90
40676;DHT22;26359;48.750;9.314;2022-09-09T09:39:55;20.50;99.90
40676;DHT22;26359;48.750;9.314;2022-09-09T09:42:21;20.50;99.90
40676;DHT22;26359;48.750;9.314;2022-09-09T09:44:47;20.20;99.90
40676;DHT22;26359;48.750;9.314;2022-09-09T09:47:21;19.30;99.90
40676;DHT22;26359;48.750;9.314;2022-09-09T09:50:01;18.90;99.90
40676;DHT22;26359;48.750;9.314;2022-09-09T09:52:30;18.60;99.90
40676;DHT22;26359;48.750;9.314;2022-09-09T09:54:57;18.50;99.90
40676;DHT22;26359;48.750;9.314;2022-09-09T09:57:28;18.50;99.90
40676;DHT22;26359;48.750;9.314;2022-09-09T10:00:13;18.50;99.90
40676;DHT22;26359;48.750;9.314;2022-09-09T10:02:41;18.70;99.90
40676;DHT22;26359;48.750;9.314;2022-09-09T10:05:23;18.80;99.90
40676;DHT22;26359;48.750;9.314;2022-09-09T10:08:12;18.90;99.90
40676;DHT22;26359;48.750;9.314;2022-09-09T10:16:40;20.30;99.90
40676;DHT22;26359;48.750;9.314;2022-09-09T10:19:26;20.70;99.90
40676;DHT22;26359;48.750;9.314;2022-09-09T10:31:27;22.20;99.90
40676;DHT22;26359;48.750;9.314;2022-09-09T10:34:21;22.70;99.90
40676;DHT22;26359;48.750;9.314;2022-09-09T10:36:51;23.20;99.90
40676;DHT22;26359;48.750;9.314;2022-09-09T10:42:04;23.50;99.90
40676;DHT22;26359;48.750;9.314;2022-09-09T10:50:25;23.90;99.90
40676;DHT22;26359;48.750;9.314;2022-09-09T10:55:42;23.50;99.90
40676;DHT22;26359;48.750;9.314;2022-09-09T10:58:14;23.30;99.90
40676;DHT22;26359;48.750;9.314;2022-09-09T11:00:45;23.10;99.90
40676;DHT22;26359;48.750;9.314;2022-09-09T11:03:25;23.00;99.90
40676;DHT22;26359;48.750;9.314;2022-09-09T11:06:21;22.50;99.90
40676;DHT22;26359;48.750;9.314;2022-09-09T11:08:45;22.30;99.90
40676;DHT22;26359;48.750;9.314;2022-09-09T11:14:43;22.00;99.90
40676;DHT22;26359;48.750;9.314;2022-09-09T11:17:11;22.40;99.90
40676;DHT22;26359;48.750;9.314;2022-09-09T11:19:40;22.40;99.90
40676;DHT22;26359;48.750;9.314;2022-09-09T11:24:53;22.30;99.90
40676;DHT22;26359;48.750;9.314;2022-09-09T11:33:47;21.80;99.90
40676;DHT22;26359;48.750;9.314;2022-09-09T11:38:52;21.50;99.90
40676;DHT22;26359;48.750;9.314;2022-09-09T11:41:20;21.30;99.90
40676;DHT22;26359;48.750;9.314;2022-09-09T11:43:51;21.10;99.90
40676;DHT22;26359;48.750;9.314;2022-09-09T11:46:20;20.60;99.90
40676;DHT22;26359;48.750;9.314;2022-09-09T11:49:04;20.20;99.90
40676;DHT22;26359;48.750;9.314;2022-09-09T11:51:32;19.70;99.90
40676;DHT22;26359;48.750;9.314;2022-09-09T11:54:00;19.30;99.90
40676;DHT22;26359;48.750;9.314;2022-09-09T11:56:42;19.30;99.90
40676;DHT22;26359;48.750;9.314;2022-09-09T11:59:23;19.30;99.90
40676;DHT22;26359;48.750;9.314;2022-09-09T12:06:55;20.60;99.90
40676;DHT22;26359;48.750;9.314;2022-09-09T12:14:38;21.50;99.90
40676;DHT22;26359;48.750;9.314;2022-09-09T12:17:24;21.60;99.90
40676;DHT22;26359;48.750;9.314;2022-09-09T12:20:13;21.90;99.90
40676;DHT22;26359;48.750;9.314;2022-09-09T12:25:53;22.70;99.90
40676;DHT22;26359;48.750;9.314;2022-09-09T12:31:22;22.80;99.90
40676;DHT22;26359;48.750;9.314;2022-09-09T12:33:50;23.00;99.90
40676;DHT22;26359;48.750;9.314;2022-09-09T12:36:32;23.30;99.90
40676;DHT22;26359;48.750;9.314;2022-09-09T12:38:59;23.40;99.90
40676;DHT22;26359;48.750;9.314;2022-09-09T12:41:35;23.50;99.90
40676;DHT22;26359;48.750;9.314;2022-09-09T12:44:09;23.80;99.90
40676;DHT22;26359;48.750;9.314;2022-09-09T12:46:40;24.00;99.90
40676;DHT22;26359;48.750;9.314;2022-09-09T12:49:35;24.20;99.90
40676;DHT22;26359;48.750;9.314;2022-09-09T12:52:09;24.20;99.90
40676;DHT22;26359;48.750;9.314;2022-09-09T12:54:46;24.30;99.90
40676;DHT22;26359;48.750;9.314;2022-09-09T12:57:13;24.60;99.90
40676;DHT22;26359;48.750;9.314;2022-09-09T12:59:41;24.50;99.90
40676;DHT22;26359;48.750;9.314;2022-09-09T13:04:42;24.00;99.90
40676;DHT22;26359;48.750;9.314;2022-09-09T13:07:08;23.60;99.90
40676;DHT22;26359;48.750;9.314;2022-09-09T13:09:35;23.10;99.90
40676;DHT22;26359;48.750;9.314;2022-09-09T13:12:01;22.70;99.90
40676;DHT22;26359;48.750;9.314;2022-09-09T13:14:34;22.40;99.90
40676;DHT22;26359;48.750;9.314;2022-09-09T13:17:04;22.30;99.90
40676;DHT22;26359;48.750;9.314;2022-09-09T13:19:34;22.30;99.90
40676;DHT22;26359;48.750;9.314;2022-09-09T13:22:11;22.10;99.90
40676;DHT22;26359;48.750;9.314;2022-09-09T13:24:38;21.90;99.90
40676;DHT22;26359;48.750;9.314;2022-09-09T13:27:32;21.90;99.90
40676;DHT22;26359;48.750;9.314;2022-09-09T13:29:59;21.80;99.90
40676;DHT22;26359;48.750;9.314;2022-09-09T13:32:26;21.70;99.90
40676;DHT22;26359;48.750;9.314;2022-09-09T13:34:58;21.60;99.90
40676;DHT22;26359;48.750;9.314;2022-09-09T13:39:57;21.70;99.90
40676;DHT22;26359;48.750;9.314;2022-09-09T13:42:26;22.10;99.90
40676;DHT22;26359;48.750;9.314;2022-09-09T13:44:52;22.30;99.90
40676;DHT22;26359;48.750;9.314;2022-09-09T13:47:20;22.50;99.90
40676;DHT22;26359;48.750;9.314;2022-09-09T13:49:49;22.90;99.90
40676;DHT22;26359;48.750;9.314;2022-09-09T13:52:17;23.10;99.90
40676;DHT22;26359;48.750;9.314;2022-09-09T13:54:51;23.40;99.90
40676;DHT22;26359;48.750;9.314;2022-09-09T13:57:22;23.50;99.90
40676;DHT22;26359;48.750;9.314;2022-09-09T13:59:48;23.70;99.90
40676;DHT22;26359;48.750;9.314;2022-09-09T14:02:15;23.50;99.90
40676;DHT22;26359;48.750;9.314;2022-09-09T14:04:42;23.40;99.90
40676;DHT22;26359;48.750;9.314;2022-09-09T14:07:18;23.50;99.90
40676;DHT22;26359;48.750;9.314;2022-09-09T14:09:44;23.60;99.90
40676;DHT22;26359;48.750;9.314;2022-09-09T14:12:12;23.70;99.90
40676;DHT22;26359;48.750;9.314;2022-09-09T14:14:39;23.70;99.90
40676;DHT22;26359;48.750;9.314;2022-09-09T14:17:04;23.40;99.90
40676;DHT22;26359;48.750;9.314;2022-09-09T14:19:30;23.40;99.90
40676;DHT22;26359;48.750;9.314;2022-09-09T14:21:57;23.40;99.90
40676;DHT22;26359;48.750;9.314;2022-09-09T14:24:23;23.30;99.90
40676;DHT22;26359;48.750;9.314;2022-09-09T14:26:49;23.40;99.90
40676;DHT22;26359;48.750;9.314;2022-09-09T14:29:14;23.50;99.90
40676;DHT22;26359;48.750;9.314;2022-09-09T14:31:40;23.60;99.90
40676;DHT22;26359;48.750;9.314;2022-09-09T14:34:05;23.60;99.90
40676;DHT22;26359;48.750;9.314;2022-09-09T14:36:31;23.50;99.90
40676;DHT22;26359;48.750;9.314;2022-09-09T14:38:57;23.40;99.90
40676;DHT22;26359;48.750;9.314;2022-09-09T14:41:22;23.20;99.90
40676;DHT22;26359;48.750;9.314;2022-09-09T14:43:49;23.10;99.90
40676;DHT22;26359;48.750;9.314;2022-09-09T14:46:17;23.00;99.90
40676;DHT22;26359;48.750;9.314;2022-09-09T14:48:43;23.10;99.90
40676;DHT22;26359;48.750;9.314;2022-09-09T14:51:16;23.20;99.90
40676;DHT22;26359;48.750;9.314;2022-09-09T14:53:43;23.40;99.90
40676;DHT22;26359;48.750;9.314;2022-09-09T14:56:12;23.40;99.90
40676;DHT22;26359;48.750;9.314;2022-09-09T14:58:38;23.50;99.90
40676;DHT22;26359;48.750;9.314;2022-09-09T15:01:05;23.50;99.90
40676;DHT22;26359;48.750;9.314;2022-09-09T15:03:32;23.50;99.90
40676;DHT22;26359;48.750;9.314;2022-09-09T15:05:57;23.50;99.90
40676;DHT22;26359;48.750;9.314;2022-09-09T15:08:26;23.40;99.90
40676;DHT22;26359;48.750;9.314;2022-09-09T15:10:59;23.40;99.90
40676;DHT22;26359;48.750;9.314;2022-09-09T15:13:25;23.20;99.90
40676;DHT22;26359;48.750;9.314;2022-09-09T15:15:50;23.20;99.90
40676;DHT22;26359;48.750;9.314;2022-09-09T15:18:16;23.10;99.90
40676;DHT22;26359;48.750;9.314;2022-09-09T15:20:45;23.10;99.90
40676;DHT22;26359;48.750;9.314;2022-09-09T15:23:11;22.90;99.90
40676;DHT22;26359;48.750;9.314;2022-09-09T15:25:37;22.80;99.90
40676;DHT22;26359;48.750;9.314;2022-09-09T15:28:02;22.70;99.90
40676;DHT22;26359;48.750;9.314;2022-09-09T15:30:28;22.60;99.90
40676;DHT22;26359;48.750;9.314;2022-09-09T15:32:53;22.50;99.90
40676;DHT22;26359;48.750;9.314;2022-09-09T15:35:20;22.30;99.90
40676;DHT22;26359;48.750;9.314;2022-09-09T15:37:45;22.30;99.90
40676;DHT22;26359;48.750;9.314;2022-09-09T15:40:11;22.40;99.90
40676;DHT22;26359;48.750;9.314;2022-09-09T15:42:36;22.40;99.90
40676;DHT22;26359;48.750;9.314;2022-09-09T15:45:03;22.50;99.90
40676;DHT22;26359;48.750;9.314;2022-09-09T15:47:30;22.40;99.90
40676;DHT22;26359;48.750;9.314;2022-09-09T15:49:55;22.30;99.90
40676;DHT22;26359;48.750;9.314;2022-09-09T15:52:21;22.20;99.90
40676;DHT22;26359;48.750;9.314;2022-09-09T15:54:46;22.10;99.90
40676;DHT22;26359;48.750;9.314;2022-09-09T15:57:13;22.00;99.90
40676;DHT22;26359;48.750;9.314;2022-09-09T15:59:38;21.90;99.90
40676;DHT22;26359;48.750;9.314;2022-09-09T16:02:05;21.80;99.90
40676;DHT22;26359;48.750;9.314;2022-09-09T16:04:31;21.70;99.90
40676;DHT22;26359;48.750;9.314;2022-09-09T16:07:01;21.60;99.90
40676;DHT22;26359;48.750;9.314;2022-09-09T16:09:27;21.60;99.90
40676;DHT22;26359;48.750;9.314;2022-09-09T16:11:56;21.40;99.90
40676;DHT22;26359;48.750;9.314;2022-09-09T16:14:23;21.30;99.90
40676;DHT22;26359;48.750;9.314;2022-09-09T16:16:50;21.20;99.90
40676;DHT22;26359;48.750;9.314;2022-09-09T16:19:16;21.20;99.90
40676;DHT22;26359;48.750;9.314;2022-09-09T16:21:44;21.10;99.90
40676;DHT22;26359;48.750;9.314;2022-09-09T16:24:12;21.20;99.90
40676;DHT22;26359;48.750;9.314;2022-09-09T16:26:40;21.10;99.90
40676;DHT22;26359;48.750;9.314;2022-09-09T16:29:08;21.10;99.90
40676;DHT22;26359;48.750;9.314;2022-09-09T16:31:34;21.00;99.90
40676;DHT22;26359;48.750;9.314;2022-09-09T16:34:00;20.90;99.90
40676;DHT22;26359;48.750;9.314;2022-09-09T16:36:30;20.90;99.90
40676;DHT22;26359;48.750;9.314;2022-09-09T16:38:58;20.80;99.90
40676;DHT22;26359;48.750;9.314;2022-09-09T16:41:25;20.70;99.90
40676;DHT22;26359;48.750;9.314;2022-09-09T16:44:11;20.70;99.90
40676;DHT22;26359;48.750;9.314;2022-09-09T16:46:38;20.60;99.90
40676;DHT22;26359;48.750;9.314;2022-09-09T16:49:06;20.60;99.90
40676;DHT22;26359;48.750;9.314;2022-09-09T16:51:37;20.60;99.90
40676;DHT22;26359;48.750;9.314;2022-09-09T16:54:06;20.60;99.90
40676;DHT22;26359;48.750;9.314;2022-09-09T16:56:33;20.60;99.90
40676;DHT22;26359;48.750;9.314;2022-09-09T16:59:01;20.60;99.90
40676;DHT22;26359;48.750;9.314;2022-09-09T17:01:29;20.60;99.90
40676;DHT22;26359;48.750;9.314;2022-09-09T17:03:58;20.60;99.90
40676;DHT22;26359;48.750;9.314;2022-09-09T17:06:24;20.30;99.90
40676;DHT22;26359;48.750;9.314;2022-09-09T17:08:58;20.20;99.90
40676;DHT22;26359;48.750;9.314;2022-09-09T17:11:24;20.10;99.90
40676;DHT22;26359;48.750;9.314;2022-09-09T17:13:51;20.00;99.90
40676;DHT22;26359;48.750;9.314;2022-09-09T17:16:18;19.80;99.90
40676;DHT22;26359;48.750;9.314;2022-09-09T17:18:46;19.70;99.90
40676;DHT22;26359;48.750;9.314;2022-09-09T17:21:16;19.50;99.90
40676;DHT22;26359;48.750;9.314;2022-09-09T17:23:42;19.60;99.90
40676;DHT22;26359;48.750;9.314;2022-09-09T17:26:10;19.50;99.90
40676;DHT22;26359;48.750;9.314;2022-09-09T17:28:40;19.50;99.90
40676;DHT22;26359;48.750;9.314;2022-09-09T17:31:08;19.50;99.90
40676;DHT22;26359;48.750;9.314;2022-09-09T17:33:36;19.40;99.90
40676;DHT22;26359;48.750;9.314;2022-09-09T17:36:07;19.40;99.90
40676;DHT22;26359;48.750;9.314;2022-09-09T17:38:33;19.40;99.90
40676;DHT22;26359;48.750;9.314;2022-09-09T17:41:05;19.30;99.90
40676;DHT22;26359;48.750;9.314;2022-09-09T17:43:31;19.30;99.90
40676;DHT22;26359;48.750;9.314;2022-09-09T17:46:27;19.20;99.90
40676;DHT22;26359;48.750;9.314;2022-09-09T17:48:58;19.20;99.90
40676;DHT22;26359;48.750;9.314;2022-09-09T17:51:26;19.10;99.90
40676;DHT22;26359;48.750;9.314;2022-09-09T17:54:00;19.10;99.90
40676;DHT22;26359;48.750;9.314;2022-09-09T17:56:28;19.00;99.90